Neilburg, Canada
Current Conditions -  °F | °C
As of 9:00 AM on Thursday 18 Dec 2014 (Local Time) from CYLL Reporting Station
Haze Haze  
Wind Chill: 16°   Ceiling: 300
Heat Index: 16°   Visibility: 0.75mi
Dew Point: 14°   Wind: 2mph
Humidity: 93%   Direction: NA
Pressure: 29.84"   Gusts: NA
Location:  52.83°N, 109.63°W
Report Text: CYLL 181500Z VRB02KT 3/4SM BR OVC003 M09/M10 A2984 RMK ST8 SLP153
Loading
Personal Weather Stations






























Interactive Weather Map New forecast layout! Learn more

10-Day Weather Forecast

Advertisements
Track Severe Weather on mobile